Time;durP1;ratioP1;P1;durP2;ratioP2;P2;SDS_P1;SDS_P2;PMS_P1;PMS_P2;Temp;Humidity;BMP_temperature;BMP_pressure;BME280_temperature;BME280_humidity;BME280_pressure;Samples;Min_cycle;Max_cycle;Signal;HPM_P1;HPM_P2
2023/07/07 00:01:04;;;;;;;8.80;7.63;;;;;;;28.07;47.18;99230.63;5092680;28;20027;-76
2023/07/07 00:03:30;;;;;;;7.85;7.10;;;;;;;28.00;47.16;99227.50;5098008;28;20066;-76
2023/07/07 00:05:55;;;;;;;10.00;8.48;;;;;;;27.18;47.36;99117.72;5094674;28;20024;-77
2023/07/07 00:08:20;;;;;;;9.80;8.27;;;;;;;27.90;47.18;99243.97;5091503;28;20452;-77
2023/07/07 00:10:47;;;;;;;9.65;7.72;;;;;;;27.86;47.21;99230.19;5091655;28;20020;-76
2023/07/07 00:13:14;;;;;;;9.93;7.85;;;;;;;27.80;47.45;99226.78;5091663;28;20028;-77
2023/07/07 00:15:44;;;;;;;11.32;7.80;;;;;;;27.83;47.55;99225.38;5091254;28;20081;-77
2023/07/07 00:18:12;;;;;;;8.10;7.33;;;;;;;27.84;47.50;99222.34;5091648;28;20496;-77
2023/07/07 00:20:37;;;;;;;7.70;6.80;;;;;;;27.24;47.18;99123.84;5091550;28;20027;-78
2023/07/07 00:23:03;;;;;;;7.53;6.75;;;;;;;27.60;47.53;99189.13;5091671;28;20040;-77
2023/07/07 00:25:28;;;;;;;8.07;7.28;;;;;;;27.39;47.34;99139.03;5092045;28;20027;-77
2023/07/07 00:27:54;;;;;;;9.05;8.05;;;;;;;27.62;47.38;99176.09;5094924;28;20043;-77
2023/07/07 00:30:19;;;;;;;8.57;7.75;;;;;;;27.13;47.39;99098.03;5091648;28;20035;-77
2023/07/07 00:32:45;;;;;;;8.30;7.60;;;;;;;27.45;47.31;99162.25;5090070;28;20062;-76
2023/07/07 00:35:10;;;;;;;8.32;7.53;;;;;;;27.84;47.25;99227.78;5091424;28;20097;-77
2023/07/07 00:37:36;;;;;;;8.23;7.18;;;;;;;27.55;47.29;99219.06;5091241;28;20108;-77
2023/07/07 00:40:03;;;;;;;10.35;7.20;;;;;;;27.70;47.39;99218.81;5091170;28;20029;-77
2023/07/07 00:42:29;;;;;;;9.35;7.80;;;;;;;27.02;47.58;99119.06;5091154;28;20024;-77
2023/07/07 00:45:21;;;;;;;9.38;8.38;;;;;;;27.53;47.86;99210.41;5091340;28;20125;-77
2023/07/07 00:47:56;;;;;;;8.38;7.55;;;;;;;27.67;47.63;99226.75;5086105;28;20424;-76
2023/07/07 00:50:25;;;;;;;7.90;7.10;;;;;;;27.57;47.98;99226.88;5090096;28;20028;-77
2023/07/07 00:52:50;;;;;;;10.20;8.48;;;;;;;27.56;48.05;99228.00;5090019;28;20028;-76
2023/07/07 00:55:38;;;;;;;8.60;7.80;;;;;;;27.59;47.99;99220.06;5091072;28;20030;-75
2023/07/07 00:58:07;;;;;;;9.13;7.65;;;;;;;27.50;47.94;99208.28;5090975;28;20063;-75
2023/07/07 01:00:38;;;;;;;8.98;7.53;;;;;;;27.49;47.78;99209.38;5091117;28;20028;-76
2023/07/07 01:03:10;;;;;;;8.55;7.68;;;;;;;27.47;47.46;99206.16;5090979;28;20032;-75
2023/07/07 01:05:37;;;;;;;9.20;7.22;;;;;;;27.41;47.41;99175.59;5091113;28;20027;-76
2023/07/07 01:08:06;;;;;;;9.45;7.18;;;;;;;26.85;47.20;99080.84;5089782;28;20449;-76
2023/07/07 01:10:32;;;;;;;8.27;7.47;;;;;;;27.68;47.08;99210.16;5090933;28;20028;-77
2023/07/07 01:12:58;;;;;;;7.68;6.80;;;;;;;27.57;47.21;99187.00;5091074;28;20028;-75
2023/07/07 01:15:28;;;;;;;7.60;6.95;;;;;;;26.57;47.11;99034.69;5090906;28;20028;-76
2023/07/07 01:18:29;;;;;;;8.60;7.18;;;;;;;27.70;47.37;99207.16;5092146;28;20454;-78
2023/07/07 01:21:02;;;;;;;8.02;6.80;;;;;;;27.64;47.46;99216.50;5094683;28;20099;-77
2023/07/07 01:24:18;;;;;;;8.93;7.88;;;;;;;27.63;47.53;99214.88;5093375;28;20039;-76
2023/07/07 01:27:05;;;;;;;8.38;7.55;;;;;;;27.28;47.77;99176.38;5090445;28;20036;-75
2023/07/07 01:29:55;;;;;;;8.70;7.75;;;;;;;27.57;47.89;99214.13;5094352;28;20027;-76
2023/07/07 01:32:24;;;;;;;8.38;7.13;;;;;;;27.56;47.60;99209.81;5094364;28;20084;-78
2023/07/07 01:34:55;;;;;;;8.57;7.10;;;;;;;27.48;47.96;99215.88;5094209;28;20031;-78
2023/07/07 01:37:21;;;;;;;8.43;6.15;;;;;;;27.26;47.83;99180.47;5094312;28;20024;-77
2023/07/07 01:39:47;;;;;;;8.05;7.30;;;;;;;27.49;47.75;99210.16;5094416;28;20169;-77
2023/07/07 01:42:24;;;;;;;10.07;7.63;;;;;;;27.48;48.01;99211.28;5094563;28;20474;-77
2023/07/07 01:45:00;;;;;;;8.52;7.22;;;;;;;27.26;47.91;99189.41;5094408;28;20100;-77
2023/07/07 01:47:36;;;;;;;9.93;7.43;;;;;;;27.34;47.98;99228.59;5094284;28;20028;-77
2023/07/07 01:50:10;;;;;;;8.80;7.90;;;;;;;26.74;48.06;99122.72;5094396;28;20507;-77
2023/07/07 01:52:48;;;;;;;8.25;7.45;;;;;;;26.44;48.07;99075.25;5094309;28;20484;-77
2023/07/07 01:55:21;;;;;;;7.57;6.72;;;;;;;27.30;48.28;99214.03;5094229;28;20063;-77
2023/07/07 01:57:51;;;;;;;8.02;7.30;;;;;;;27.26;48.40;99216.53;5092739;28;20079;-76
2023/07/07 02:00:19;;;;;;;8.02;7.22;;;;;;;27.11;48.44;99209.44;5093850;28;20024;-76
2023/07/07 02:02:45;;;;;;;9.68;7.95;;;;;;;26.51;48.63;99119.81;5093743;28;20393;-76
2023/07/07 02:05:11;;;;;;;8.77;7.30;;;;;;;27.16;48.69;99222.09;5093716;28;20039;-77
2023/07/07 02:07:37;;;;;;;12.32;8.02;;;;;;;26.94;48.67;99192.06;5093826;28;20035;-76
2023/07/07 02:10:03;;;;;;;9.00;7.90;;;;;;;27.11;48.68;99222.19;5092467;28;20024;-78
2023/07/07 02:12:29;;;;;;;9.88;8.00;;;;;;;27.11;48.79;99225.69;5093802;28;20020;-78
2023/07/07 02:14:54;;;;;;;9.73;8.38;;;;;;;27.13;48.65;99228.91;5093447;28;20032;-76
2023/07/07 02:17:19;;;;;;;8.45;7.65;;;;;;;27.14;48.53;99227.81;5093428;28;20020;-78
2023/07/07 02:19:45;;;;;;;8.95;8.05;;;;;;;26.01;48.46;99050.94;5093393;28;20032;-77
2023/07/07 02:22:13;;;;;;;8.63;7.72;;;;;;;26.78;48.71;99167.09;5093552;28;20020;-77
2023/07/07 02:24:38;;;;;;;10.15;7.95;;;;;;;27.14;48.88;99230.53;5093603;28;20503;-78
2023/07/07 02:27:04;;;;;;;8.90;8.02;;;;;;;26.30;48.68;99094.09;5093608;28;20024;-76
2023/07/07 02:29:30;;;;;;;10.48;8.25;;;;;;;27.13;48.39;99231.63;5092979;28;20024;-78
2023/07/07 02:31:55;;;;;;;9.45;8.32;;;;;;;26.86;48.72;99185.41;5093059;28;20079;-75
2023/07/07 02:34:20;;;;;;;9.38;7.97;;;;;;;26.97;48.51;99210.44;5093087;28;20529;-78
2023/07/07 02:36:46;;;;;;;11.05;8.02;;;;;;;26.86;48.66;99196.25;5093504;28;20032;-75
2023/07/07 02:39:11;;;;;;;10.00;7.63;;;;;;;27.08;48.74;99234.41;5093161;28;20477;-76
2023/07/07 02:41:37;;;;;;;9.45;8.40;;;;;;;26.52;48.51;99153.91;5093127;28;20036;-78
2023/07/07 02:44:02;;;;;;;8.73;7.68;;;;;;;27.00;48.76;99223.44;5093117;28;20065;-77
2023/07/07 02:46:28;;;;;;;8.48;7.68;;;;;;;26.39;48.84;99138.38;5093035;28;20106;-76
2023/07/07 02:48:53;;;;;;;9.07;8.18;;;;;;;26.89;48.90;99225.47;5093066;28;20024;-77
2023/07/07 02:51:18;;;;;;;8.45;7.60;;;;;;;26.79;49.02;99217.47;5093188;28;20506;-76
2023/07/07 02:53:44;;;;;;;9.98;8.05;;;;;;;26.90;49.07;99243.31;5092847;28;20020;-77
2023/07/07 02:56:09;;;;;;;8.68;7.88;;;;;;;26.90;49.00;99246.84;5092888;28;20024;-77
2023/07/07 02:58:35;;;;;;;8.27;7.47;;;;;;;26.11;49.04;99136.56;5092690;28;20471;-76
2023/07/07 03:01:12;;;;;;;8.73;7.82;;;;;;;26.77;49.29;99244.84;5092797;28;20479;-77
2023/07/07 03:03:39;;;;;;;8.32;7.53;;;;;;;26.76;49.33;99253.28;5092683;28;20094;-78
2023/07/07 03:06:12;;;;;;;10.27;8.05;;;;;;;26.60;49.20;99258.84;5092690;28;20054;-77
2023/07/07 03:08:37;;;;;;;9.10;7.75;;;;;;;26.60;49.42;99237.19;5091310;28;20059;-77
2023/07/07 03:11:08;;;;;;;9.18;7.65;;;;;;;26.71;49.51;99247.91;5092624;28;20043;-77
2023/07/07 03:13:34;;;;;;;8.68;7.72;;;;;;;26.37;49.32;99188.50;5092633;28;20024;-77
2023/07/07 03:16:08;;;;;;;9.45;8.00;;;;;;;25.90;49.47;99114.34;5092373;28;20034;-77
2023/07/07 03:18:33;;;;;;;9.15;7.75;;;;;;;26.69;49.29;99233.84;5092660;28;20020;-77
2023/07/07 03:20:58;;;;;;;10.88;8.23;;;;;;;26.80;49.28;99268.66;5091195;28;20024;-77
2023/07/07 03:23:24;;;;;;;7.63;6.93;;;;;;;26.77;49.24;99247.56;5092793;28;20028;-76
2023/07/07 03:25:49;;;;;;;9.85;8.02;;;;;;;26.03;49.34;99142.63;5093426;28;20020;-77
2023/07/07 03:28:15;;;;;;;9.00;7.97;;;;;;;26.80;49.33;99248.88;5093427;28;20016;-78
2023/07/07 03:30:40;;;;;;;8.90;7.70;;;;;;;26.40;49.21;99186.03;5094628;28;20463;-75
2023/07/07 03:33:06;;;;;;;8.88;7.88;;;;;;;26.73;49.14;99237.56;5092087;28;20024;-76
2023/07/07 03:35:32;;;;;;;10.45;8.18;;;;;;;26.45;49.04;99196.78;5092408;28;20020;-77
2023/07/07 03:37:57;;;;;;;11.23;7.72;;;;;;;26.16;49.06;99148.13;5090833;28;20030;-77
2023/07/07 03:40:22;;;;;;;8.27;7.47;;;;;;;26.85;48.98;99254.22;5091852;28;20020;-77
2023/07/07 03:42:48;;;;;;;10.60;8.75;;;;;;;25.98;48.91;99111.78;5091370;28;20471;-77
2023/07/07 03:45:16;;;;;;;8.80;7.57;;;;;;;26.74;49.01;99239.19;5091872;28;20024;-77
2023/07/07 03:47:43;;;;;;;9.13;7.47;;;;;;;26.33;49.00;99180.16;5091892;28;20027;-77
2023/07/07 03:50:09;;;;;;;8.98;7.88;;;;;;;26.76;48.93;99245.16;5091889;28;20016;-77
2023/07/07 03:52:35;;;;;;;10.73;7.95;;;;;;;26.31;49.04;99189.63;5091984;28;20026;-77
2023/07/07 03:55:01;;;;;;;8.55;7.68;;;;;;;26.45;48.93;99206.81;5091692;28;20497;-78
2023/07/07 03:57:26;;;;;;;8.68;7.82;;;;;;;26.76;48.99;99255.97;5091772;28;20028;-77
2023/07/07 03:59:52;;;;;;;8.57;7.70;;;;;;;26.56;49.01;99238.88;5090430;28;20073;-77
2023/07/07 04:02:17;;;;;;;9.45;7.95;;;;;;;26.65;49.31;99254.47;5091627;28;20096;-77
2023/07/07 04:04:43;;;;;;;10.02;8.50;;;;;;;25.62;49.25;99091.66;5091427;28;20404;-75
2023/07/07 04:07:08;;;;;;;11.27;8.60;;;;;;;26.63;49.36;99257.47;5091678;28;20016;-76
2023/07/07 04:09:33;;;;;;;8.93;7.55;;;;;;;25.70;49.15;99099.16;5091539;28;20020;-77
2023/07/07 04:11:59;;;;;;;10.32;8.68;;;;;;;26.67;49.28;99273.94;5091392;28;20128;-77
2023/07/07 04:14:28;;;;;;;11.13;8.35;;;;;;;26.45;49.28;99236.59;5091679;28;20512;-77
2023/07/07 04:16:54;;;;;;;10.23;8.48;;;;;;;26.58;49.43;99271.88;5091597;28;20016;-76
2023/07/07 04:19:22;;;;;;;10.80;7.75;;;;;;;26.59;49.50;99265.38;5091362;28;20394;-76
2023/07/07 04:21:48;;;;;;;10.02;8.90;;;;;;;26.59;49.54;99268.09;5091384;28;20020;-77
2023/07/07 04:24:18;;;;;;;12.35;9.15;;;;;;;26.40;49.52;99234.75;5091492;28;20073;-78
2023/07/07 04:26:43;;;;;;;10.15;8.38;;;;;;;25.85;49.40;99163.88;5091304;28;20027;-76
2023/07/07 04:29:08;;;;;;;10.57;8.73;;;;;;;26.72;49.60;99269.28;5091478;28;20077;-78
2023/07/07 04:31:34;;;;;;;13.73;8.77;;;;;;;25.92;49.35;99133.78;5091272;28;20487;-77
2023/07/07 04:33:59;;;;;;;11.30;9.07;;;;;;;26.52;49.46;99221.59;5091257;28;20485;-77
2023/07/07 04:36:25;;;;;;;10.60;8.18;;;;;;;26.11;49.58;99158.22;5090282;28;20031;-77
2023/07/07 04:38:50;;;;;;;9.55;8.63;;;;;;;26.02;49.41;99141.81;5091412;28;20085;-77
2023/07/07 04:41:19;;;;;;;9.13;8.18;;;;;;;26.85;49.32;99268.59;5089880;28;20036;-76
2023/07/07 04:43:48;;;;;;;9.70;8.63;;;;;;;26.82;49.34;99273.78;5091208;28;20016;-77
2023/07/07 04:46:35;;;;;;;12.20;8.38;;;;;;;26.82;49.20;99285.41;5091235;28;20066;-76
2023/07/07 04:49:08;;;;;;;9.10;8.20;;;;;;;26.85;49.23;99282.13;5091128;28;20027;-77
2023/07/07 04:51:39;;;;;;;10.88;7.72;;;;;;;26.91;49.19;99288.28;5091453;28;20098;-77
2023/07/07 04:54:06;;;;;;;8.88;7.63;;;;;;;26.95;48.96;99288.50;5094229;28;20031;-76
2023/07/07 04:56:35;;;;;;;7.93;7.13;;;;;;;27.00;48.78;99289.28;5095335;28;20070;-78
2023/07/07 04:59:02;;;;;;;8.98;7.80;;;;;;;27.00;48.79;99291.19;5094837;28;20402;-77
2023/07/07 05:01:29;;;;;;;8.85;7.78;;;;;;;26.95;48.84;99288.50;5095072;28;20032;-76
2023/07/07 05:04:01;;;;;;;9.63;8.18;;;;;;;27.03;48.79;99288.69;5094989;28;20497;-77
2023/07/07 05:06:28;;;;;;;10.95;8.13;;;;;;;27.10;48.96;99291.03;5094990;28;20102;-76
2023/07/07 05:08:55;;;;;;;8.88;7.82;;;;;;;26.85;48.88;99254.22;5093701;28;20081;-77
2023/07/07 05:11:24;;;;;;;9.55;8.45;;;;;;;26.99;49.04;99278.72;5094980;28;20020;-77
2023/07/07 05:13:52;;;;;;;9.13;8.20;;;;;;;27.06;49.20;99304.38;5093741;28;20126;-79
2023/07/07 05:16:20;;;;;;;11.38;8.70;;;;;;;27.03;49.50;99298.72;5093387;28;20020;-75
2023/07/07 05:18:46;;;;;;;11.93;8.65;;;;;;;27.03;49.39;99290.59;5094672;28;20127;-77
2023/07/07 05:21:13;;;;;;;10.32;8.93;;;;;;;27.07;49.44;99303.28;5094394;28;20540;-77
2023/07/07 05:23:38;;;;;;;9.70;8.70;;;;;;;26.90;49.56;99267.72;5094568;28;20083;-78
2023/07/07 05:26:05;;;;;;;9.07;8.18;;;;;;;27.13;49.40;99312.94;5094754;28;20458;-77
2023/07/07 05:28:32;;;;;;;10.27;8.32;;;;;;;27.11;49.29;99311.63;5094760;28;20084;-77
2023/07/07 05:30:58;;;;;;;9.77;8.57;;;;;;;27.08;49.17;99315.72;5094639;28;20091;-79
2023/07/07 05:33:23;;;;;;;15.35;13.60;;;;;;;27.05;49.70;99332.56;5094466;28;20103;-75
2023/07/07 05:35:55;;;;;;;10.93;9.82;;;;;;;27.03;49.64;99306.84;5094662;28;20035;-78
2023/07/07 05:38:21;;;;;;;;;;;;;;;26.84;50.05;99314.94;5093737;28;20393;-77
2023/07/07 05:40:47;;;;;;;9.30;8.20;;;;;;;26.98;49.13;99329.41;5094220;28;19911;-76
2023/07/07 05:43:13;;;;;;;13.95;8.93;;;;;;;26.35;49.02;99234.00;5094452;28;20035;-77
2023/07/07 05:45:39;;;;;;;9.65;7.38;;;;;;;26.98;48.94;99306.91;5094259;28;20024;-77
2023/07/07 05:48:05;;;;;;;8.25;7.38;;;;;;;26.66;48.94;99258.78;5094059;28;20520;-77
2023/07/07 05:50:30;;;;;;;11.82;9.13;;;;;;;26.68;48.82;99278.28;5092766;28;20027;-78
2023/07/07 05:52:56;;;;;;;12.85;11.55;;;;;;;26.19;48.96;99198.16;5093906;28;20231;-76
2023/07/07 05:55:29;;;;;;;18.67;15.32;;;;;;;26.85;48.83;99284.03;5093989;28;20027;-77
2023/07/07 05:57:55;;;;;;;12.93;9.95;;;;;;;26.79;48.88;99261.63;5086052;28;20055;-76
2023/07/07 06:00:21;;;;;;;10.43;9.32;;;;;;;27.10;48.68;99302.69;5077556;28;20029;-76
2023/07/07 06:02:46;;;;;;;10.02;8.45;;;;;;;27.26;48.48;99322.25;5075595;28;20020;-76
2023/07/07 06:05:11;;;;;;;10.43;8.15;;;;;;;27.15;48.56;99299.91;5072768;28;20408;-76
2023/07/07 06:07:37;;;;;;;10.32;9.32;;;;;;;26.30;48.53;99172.59;5074013;28;20404;-77
2023/07/07 06:10:02;;;;;;;9.82;8.88;;;;;;;26.94;48.73;99281.47;5077894;28;20078;-77
2023/07/07 06:12:28;;;;;;;9.43;8.50;;;;;;;26.80;48.78;99257.81;5075757;28;20111;-77
2023/07/07 06:14:53;;;;;;;11.48;9.00;;;;;;;26.85;48.78;99263.16;5072361;28;20405;-77
2023/07/07 06:17:19;;;;;;;9.60;8.60;;;;;;;27.25;49.00;99322.53;5082163;28;20016;-77
2023/07/07 06:19:44;;;;;;;10.55;9.55;;;;;;;27.23;48.96;99323.63;5073493;28;20413;-77
2023/07/07 06:22:10;;;;;;;8.63;7.68;;;;;;;27.21;49.11;99323.13;5070981;28;20036;-77
2023/07/07 06:24:35;;;;;;;9.35;7.75;;;;;;;26.37;49.35;99207.44;5072200;28;20032;-76
2023/07/07 06:27:00;;;;;;;12.70;8.80;;;;;;;26.85;49.42;99284.03;5075394;28;20020;-77
2023/07/07 06:29:26;;;;;;;9.50;8.60;;;;;;;26.89;49.30;99285.88;5072305;28;20035;-76
2023/07/07 06:31:51;;;;;;;12.35;9.35;;;;;;;27.11;49.23;99314.31;5073301;28;20106;-75
2023/07/07 06:34:17;;;;;;;13.18;11.55;;;;;;;27.14;49.60;99319.97;5074599;28;20550;-77
2023/07/07 06:36:42;;;;;;;9.05;7.90;;;;;;;26.89;49.68;99285.06;5075136;28;20047;-76
2023/07/07 06:39:07;;;;;;;12.52;8.75;;;;;;;26.29;49.82;99204.25;5087014;28;20505;-77
2023/07/07 06:41:33;;;;;;;11.32;8.48;;;;;;;26.99;49.46;99276.03;5075206;28;20024;-77
2023/07/07 06:43:58;;;;;;;10.05;9.00;;;;;;;26.91;49.52;99250.34;5092991;28;20023;-78
2023/07/07 06:46:25;;;;;;;8.80;7.80;;;;;;;27.36;49.45;99305.81;5074098;28;20103;-76
2023/07/07 06:48:51;;;;;;;9.07;8.13;;;;;;;26.66;49.38;99164.81;5075279;28;20406;-78
2023/07/07 06:51:18;;;;;;;9.32;7.68;;;;;;;27.66;49.09;99303.78;5072210;28;20020;-76
2023/07/07 06:53:43;;;;;;;7.97;7.18;;;;;;;27.63;48.75;99282.69;5075412;28;20100;-77
2023/07/07 06:56:09;;;;;;;9.95;6.97;;;;;;;27.18;48.88;99203.66;5092696;28;20107;-77
2023/07/07 06:58:34;;;;;;;10.15;7.20;;;;;;;27.88;48.42;99298.53;5088841;28;20123;-75
2023/07/07 07:01:00;;;;;;;9.48;7.65;;;;;;;28.00;48.54;99311.63;5073466;28;20108;-75
2023/07/07 07:03:25;;;;;;;9.45;7.63;;;;;;;28.10;48.20;99311.44;5076544;28;20020;-76
2023/07/07 07:05:51;;;;;;;9.55;7.50;;;;;;;27.97;47.86;99272.31;5079171;28;20012;-75
2023/07/07 07:08:16;;;;;;;7.65;6.85;;;;;;;28.34;47.67;99308.63;5080728;28;20571;-75
2023/07/07 07:10:41;;;;;;;8.70;7.30;;;;;;;27.40;47.22;99140.66;5086499;28;20024;-76
2023/07/07 07:13:08;;;;;;;10.57;7.90;;;;;;;27.87;46.87;99212.00;5078983;28;20516;-77
2023/07/07 07:15:33;;;;;;;9.60;7.45;;;;;;;28.56;47.02;99297.06;5071984;28;20016;-78
2023/07/07 07:17:59;;;;;;;8.18;7.20;;;;;;;28.74;46.55;99313.25;5070740;28;20020;-78
2023/07/07 07:20:25;;;;;;;10.95;6.85;;;;;;;27.92;46.73;99169.31;5072167;28;20024;-78
2023/07/07 07:22:50;;;;;;;8.57;7.20;;;;;;;27.73;46.58;99125.19;5072064;28;20032;-77
2023/07/07 07:25:16;;;;;;;7.85;7.07;;;;;;;28.88;47.03;99312.44;5072068;28;20025;-76
2023/07/07 07:27:42;;;;;;;7.93;7.13;;;;;;;28.84;46.42;99293.22;5071853;28;20097;-76
2023/07/07 07:30:08;;;;;;;11.30;7.30;;;;;;;28.76;46.48;99273.00;5091869;28;20020;-77
2023/07/07 07:32:34;;;;;;;9.60;6.75;;;;;;;28.88;46.12;99304.31;5085325;28;20110;-77
2023/07/07 07:35:00;;;;;;;7.93;6.72;;;;;;;28.71;46.22;99275.00;5072062;28;20020;-77
2023/07/07 07:37:28;;;;;;;8.32;7.38;;;;;;;29.00;46.04;99301.88;5073093;28;20401;-79
2023/07/07 07:39:53;;;;;;;7.85;7.15;;;;;;;29.08;46.45;99304.69;5089060;28;20031;-78
2023/07/07 07:42:19;;;;;;;8.55;6.45;;;;;;;28.56;46.14;99216.38;5090440;28;20024;-78
2023/07/07 07:44:44;;;;;;;8.30;7.10;;;;;;;28.87;46.36;99249.13;5091955;28;20585;-79
2023/07/07 07:47:09;;;;;;;8.93;6.97;;;;;;;29.30;45.77;99319.44;5090052;28;20026;-77
2023/07/07 07:49:35;;;;;;;9.07;8.20;;;;;;;28.55;45.17;99176.72;5090120;28;20024;-78
2023/07/07 07:52:00;;;;;;;7.95;7.13;;;;;;;28.63;44.97;99183.34;5078423;28;20023;-76
2023/07/07 07:54:26;;;;;;;7.93;7.15;;;;;;;29.59;44.57;99310.88;5074181;28;20417;-77
2023/07/07 07:56:52;;;;;;;7.72;6.68;;;;;;;29.65;44.53;99299.56;5069905;28;20067;-77
2023/07/07 07:59:17;;;;;;;8.35;6.95;;;;;;;29.77;44.05;99320.00;5071565;28;20055;-76
2023/07/07 08:01:44;;;;;;;10.45;7.18;;;;;;;29.38;44.00;99234.38;5089698;28;20032;-77
2023/07/07 08:04:10;;;;;;;7.78;7.05;;;;;;;29.93;43.18;99307.63;5086932;28;20177;-78
2023/07/07 08:06:35;;;;;;;7.80;7.05;;;;;;;29.80;43.31;99278.56;5090054;28;20111;-77
2023/07/07 08:09:02;;;;;;;7.10;6.40;;;;;;;29.84;42.89;99285.78;5091278;28;20023;-77
2023/07/07 08:11:47;;;;;;;8.00;6.75;;;;;;;30.10;42.08;99310.47;5091237;28;20048;-77
2023/07/07 08:14:21;;;;;;;7.30;6.30;;;;;;;29.27;41.93;99168.56;5079878;28;20026;-77
2023/07/07 08:16:47;;;;;;;7.70;6.63;;;;;;;29.42;41.99;99181.78;5071023;28;20089;-76
2023/07/07 08:19:13;;;;;;;7.00;6.30;;;;;;;29.73;41.70;99228.09;5071096;28;20025;-77
2023/07/07 08:21:39;;;;;;;6.88;6.10;;;;;;;30.36;41.54;99310.59;5071425;28;20040;-77
2023/07/07 08:24:05;;;;;;;8.10;6.10;;;;;;;29.58;41.22;99179.50;5069725;28;20036;-78
2023/07/07 08:26:31;;;;;;;7.47;5.85;;;;;;;29.93;41.03;99232.19;5081635;28;20445;-75
2023/07/07 08:28:57;;;;;;;7.68;6.35;;;;;;;30.58;40.75;99307.81;5097084;28;20051;-77
2023/07/07 08:31:22;;;;;;;8.13;6.00;;;;;;;30.32;40.95;99250.47;5092108;28;20486;-77
2023/07/07 08:33:49;;;;;;;7.30;6.45;;;;;;;29.95;40.52;99191.84;5081224;28;20020;-76
2023/07/07 08:36:14;;;;;;;8.13;7.30;;;;;;;30.76;40.57;99310.63;5084532;28;20024;-77
2023/07/07 08:38:40;;;;;;;7.93;6.40;;;;;;;30.20;40.46;99208.63;5090885;28;20508;-76
2023/07/07 08:41:05;;;;;;;9.25;6.50;;;;;;;30.97;40.02;99308.88;5087406;28;20012;-77
2023/07/07 08:43:31;;;;;;;7.47;6.63;;;;;;;30.97;40.23;99304.25;5077719;28;20493;-78
2023/07/07 08:46:02;;;;;;;8.13;7.30;;;;;;;30.98;40.06;99305.84;5077545;28;20027;-76
2023/07/07 08:48:45;;;;;;;7.30;6.60;;;;;;;31.03;39.92;99301.34;5078676;28;20030;-77
2023/07/07 08:51:26;;;;;;;9.93;6.03;;;;;;;31.02;38.08;99297.81;5077721;28;20489;-75
2023/07/07 08:54:31;;;;;;;8.15;7.38;;;;;;;30.99;39.22;99296.53;5077432;28;20019;-76
2023/07/07 08:57:25;;;;;;;7.53;5.97;;;;;;;31.10;39.11;99307.94;5077304;28;20059;-76
2023/07/07 08:59:50;;;;;;;6.80;6.15;;;;;;;31.28;38.74;99289.72;5081442;28;20044;-77
2023/07/07 09:02:44;;;;;;;6.22;5.63;;;;;;;31.31;38.26;99267.25;5078820;28;20421;-77
2023/07/07 09:05:58;;;;;;;6.80;5.82;;;;;;;31.57;38.15;99284.41;5085456;28;20032;-77
2023/07/07 09:08:36;;;;;;;7.07;5.63;;;;;;;31.73;37.84;99290.19;5056738;28;20505;-77
2023/07/07 09:11:11;;;;;;;6.78;5.95;;;;;;;31.93;37.16;99278.56;5078981;28;20028;-77
2023/07/07 09:13:38;;;;;;;7.88;7.03;;;;;;;31.99;37.42;99271.03;5091741;28;20084;-75
2023/07/07 09:16:22;;;;;;;7.30;6.20;;;;;;;32.27;37.35;99301.50;5098074;28;20082;-76
2023/07/07 09:18:54;;;;;;;7.95;7.15;;;;;;;31.74;36.83;99173.59;5087445;28;20020;-78
2023/07/07 09:21:30;;;;;;;10.18;7.28;;;;;;;32.59;36.60;99286.38;5082069;28;20497;-78
2023/07/07 09:23:59;;;;;;;7.10;6.15;;;;;;;32.49;37.07;99294.97;5076405;28;20032;-77
2023/07/07 09:26:24;;;;;;;7.50;6.68;;;;;;;32.27;37.33;99293.28;5080689;28;20035;-78
2023/07/07 09:28:54;;;;;;;8.88;7.05;;;;;;;32.11;37.32;99293.00;5089345;28;20412;-76
2023/07/07 09:31:33;;;;;;;8.02;7.25;;;;;;;31.57;37.17;99229.81;5097816;28;20058;-76
2023/07/07 09:34:02;;;;;;;7.13;6.43;;;;;;;31.76;37.70;99277.81;5097564;28;20024;-75
2023/07/07 09:36:35;;;;;;;7.15;6.45;;;;;;;31.91;36.47;99269.91;5097631;28;20574;-76
2023/07/07 09:39:15;;;;;;;8.10;6.57;;;;;;;32.29;36.39;99287.50;5096046;28;20027;-77
2023/07/07 09:41:58;;;;;;;7.15;6.40;;;;;;;32.66;35.82;99277.66;5089936;28;20028;-77
2023/07/07 09:44:54;;;;;;;8.50;6.20;;;;;;;33.12;35.09;99285.75;5095421;28;20031;-79
2023/07/07 09:47:31;;;;;;;7.63;6.82;;;;;;;33.51;34.43;99271.97;5094121;28;20514;-77
2023/07/07 09:50:01;;;;;;;6.95;6.28;;;;;;;33.59;33.92;99273.81;5092761;28;20390;-77
2023/07/07 09:53:02;;;;;;;7.95;7.10;;;;;;;33.29;34.48;99276.59;5094045;28;20120;-77
2023/07/07 09:55:35;;;;;;;14.15;7.43;;;;;;;32.69;35.34;99227.78;5092973;28;20040;-77
2023/07/07 09:58:14;;;;;;;9.20;8.25;;;;;;;33.10;34.92;99270.81;5093572;28;20048;-77
2023/07/07 10:00:43;;;;;;;7.63;6.63;;;;;;;32.80;34.38;99174.38;5083426;28;20493;-77
2023/07/07 10:03:43;;;;;;;7.47;6.78;;;;;;;33.67;33.50;99275.66;5073199;28;20035;-77
2023/07/07 10:06:49;;;;;;;9.43;8.52;;;;;;;34.01;33.04;99267.09;5073483;28;20044;-76
2023/07/07 10:09:16;;;;;;;8.95;6.65;;;;;;;33.48;32.92;99128.38;5072846;28;20099;-77
2023/07/07 10:11:45;;;;;;;8.80;5.93;;;;;;;33.38;32.28;99104.13;5073421;28;20024;-78
2023/07/07 10:14:12;;;;;;;6.35;5.78;;;;;;;33.98;31.83;99160.13;5073467;28;20017;-77
2023/07/07 10:17:09;;;;;;;7.07;5.75;;;;;;;34.75;30.01;99248.75;5071896;28;20048;-76
2023/07/07 10:19:42;;;;;;;9.27;6.13;;;;;;;34.54;30.86;99152.94;5074218;28;20103;-75
2023/07/07 10:22:13;;;;;;;7.30;6.68;;;;;;;35.18;30.17;99223.41;5076282;28;20020;-76
2023/07/07 10:24:38;;;;;;;6.95;6.25;;;;;;;35.27;30.53;99195.81;5075232;28;20020;-78
2023/07/07 10:27:04;;;;;;;6.57;5.97;;;;;;;35.08;29.83;99162.75;5073991;28;20084;-76
2023/07/07 10:29:39;;;;;;;7.53;6.35;;;;;;;35.03;30.18;99155.56;5072908;28;20425;-77
2023/07/07 10:32:10;;;;;;;7.60;6.20;;;;;;;35.51;30.54;99205.88;5072850;28;20103;-78
2023/07/07 10:34:38;;;;;;;6.88;6.18;;;;;;;35.62;30.70;99220.69;5089419;28;20073;-77
2023/07/07 10:37:18;;;;;;;7.45;6.70;;;;;;;35.76;30.37;99218.34;5072731;28;20021;-77
2023/07/07 10:39:49;;;;;;;7.15;6.38;;;;;;;35.77;29.93;99217.19;5072966;28;20074;-77
2023/07/07 10:42:14;;;;;;;6.60;5.97;;;;;;;35.77;29.62;99200.72;5079588;28;20030;-76
2023/07/07 10:44:41;;;;;;;6.75;6.05;;;;;;;35.97;29.25;99182.41;5091223;28;20035;-78
2023/07/07 10:47:08;;;;;;;9.13;6.55;;;;;;;36.24;28.77;99208.16;5079228;28;20478;-77
2023/07/07 10:49:34;;;;;;;8.57;6.18;;;;;;;35.03;28.90;99074.03;5072711;28;20044;-77
2023/07/07 10:52:27;;;;;;;6.45;5.85;;;;;;;35.50;29.51;99220.78;5072021;28;20052;-77
2023/07/07 10:55:17;;;;;;;6.57;5.97;;;;;;;34.98;30.60;99238.91;5071616;28;20032;-76
2023/07/07 10:58:00;;;;;;;8.57;6.55;;;;;;;34.67;31.05;99217.56;5072172;28;20045;-77
2023/07/07 11:00:25;;;;;;;8.20;6.20;;;;;;;34.35;31.42;99229.50;5072294;28;20169;-74
2023/07/07 11:03:04;;;;;;;10.35;7.35;;;;;;;34.11;31.72;99258.44;5071829;28;20116;-78
2023/07/07 11:05:32;;;;;;;7.70;5.47;;;;;;;33.86;33.09;99262.28;5072271;28;20032;-78
2023/07/07 11:08:12;;;;;;;10.23;5.32;;;;;;;33.47;33.92;99253.47;5070112;28;20113;-77
2023/07/07 11:10:56;;;;;;;8.02;5.40;;;;;;;31.40;34.55;99047.03;5075009;28;20028;-77
2023/07/07 11:13:28;;;;;;;9.90;5.75;;;;;;;32.54;35.57;99254.56;5078343;28;20074;-77
2023/07/07 11:16:11;;;;;;;23.33;6.93;;;;;;;32.22;36.65;99287.97;5072036;28;20025;-77
2023/07/07 11:18:43;;;;;;;9.38;5.00;;;;;;;31.82;36.87;99290.97;5072202;28;20594;-77
2023/07/07 11:21:17;;;;;;;8.98;6.15;;;;;;;31.57;37.20;99308.97;5073242;28;20055;-79
2023/07/07 11:24:23;;;;;;;11.00;5.78;;;;;;;31.27;36.77;99301.75;5075463;28;20115;-78
2023/07/07 11:27:25;;;;;;;18.58;6.55;;;;;;;30.98;38.63;99292.22;5073965;28;20036;-77
2023/07/07 11:30:10;;;;;;;20.98;6.70;;;;;;;30.72;40.76;99302.25;5071452;28;20054;-76
2023/07/07 11:33:01;;;;;;;15.32;7.35;;;;;;;30.28;46.24;99306.72;5072416;28;20063;-75
2023/07/07 11:35:32;;;;;;;14.83;7.53;;;;;;;29.93;45.29;99313.06;5080214;28;20031;-75
2023/07/07 11:38:19;;;;;;;14.15;7.50;;;;;;;29.61;48.83;99317.63;5084791;28;20063;-76
2023/07/07 11:41:23;;;;;;;13.20;7.03;;;;;;;29.38;49.32;99308.63;5072740;28;20036;-75
2023/07/07 11:43:58;;;;;;;15.57;6.97;;;;;;;29.24;49.01;99317.94;5073325;28;20515;-75
2023/07/07 11:46:32;;;;;;;8.90;6.07;;;;;;;29.16;49.20;99324.91;5051666;28;20036;-75